CheckWX is a tool to help pilots better visualize weather data.  It is not intended as a substitute for an official pre-flight weather briefing.

02:09:36 UTC

PALH METAR
Lake Hood Seaplane Base
Anchorage, Alaska, USA
Current

17 mins ago

PALH 220153Z 30003KT 3/4SM -SN BR VV016 M08/M11 A2951 RMK AO2 SLP992 P0000 T10831106
Observed
Jan-22 @ 01:53 UTC
Wind
  • 300° at 3 KTS
Visibility
3/4 SM
Flight Rules
LIFR
Conditions
Light Snow, Mist
Cloud Levels
  • Vertical visibility at 1,600' AGL
Temperature
-8°C / 18°F
Dewpoint
-11°C / 12°F
Humidity
79%
Altimeter
29.51" Hg
Pressure
999.32 hPa
Current Rain
0.01"
Previous

1 hour ago

PALH 220104Z 00000KT 3/4SM -SN BR VV018 M09/M11 A2950 RMK AO2 TWR VIS 2 P0000 T10891106
Observed
Jan-22 @ 01:04 UTC
Visibility
3/4 SM
Flight Rules
LIFR
Conditions
Light Snow, Mist
Cloud Levels
  • Vertical visibility at 1,800' AGL
Temperature
-9°C / 16°F
Dewpoint
-11°C / 12°F
Humidity
86%
Altimeter
29.5" Hg
Pressure
999.02 hPa
Current Rain
0.01"
Previous

1 hour ago

PALH 220053Z 00000KT 1/2SM SN FZFG VV013 M09/M11 A2950 RMK AO2 TWR VIS 2 SLP991 P0000 T10891106
Observed
Jan-22 @ 00:53 UTC
Visibility
1/2 SM
Flight Rules
LIFR
Conditions
Snow, Freezing Fog
Cloud Levels
  • Vertical visibility at 1,300' AGL
Temperature
-9°C / 16°F
Dewpoint
-11°C / 12°F
Humidity
86%
Altimeter
29.5" Hg
Pressure
999.02 hPa
Current Rain
0.01"